Terminal Aerodrome Forecast
Issued by NWS

Home | Current Version | Previous Version | Text Only | Print | Product List | Glossary On
Versions: 1 2 3 4 5 6 7 8 9 10 11 12 13 14 15 16 17
147
FTUS43 KDLH 250529
TAFHIB
TAF
KHIB 250529Z 2506/2606 25004KT P6SM SKC
     FM251300 26006KT P6SM SCT020 BKN035
     FM251600 27010G20KT P6SM VCSH SCT015 BKN027
     FM252200 30013G23KT P6SM BKN050
     FM260100 31007KT P6SM SCT050=

USA.gov is the U.S. government's official web portal to all federal, state and local government web resources and services.